Time;durP1;ratioP1;P1;durP2;ratioP2;P2;SDS_P1;SDS_P2;PMS_P1;PMS_P2;Temp;Humidity;BMP_temperature;BMP_pressure;BME280_temperature;BME280_humidity;BME280_pressure;Samples;Min_cycle;Max_cycle;Signal;HPM_P1;HPM_P2
2021/01/19 00:02:16;;;;;;;11.27;7.47;;;5.50;99.90;;;;;;5013136;28;20454;-74
2021/01/19 00:04:43;;;;;;;13.23;9.07;;;5.50;99.90;;;;;;5014907;28;20515;-75
2021/01/19 00:07:09;;;;;;;11.37;9.17;;;5.40;99.90;;;;;;5014021;28;20499;-75
2021/01/19 00:09:36;;;;;;;20.90;9.83;;;5.50;99.90;;;;;;5014468;28;20540;-76
2021/01/19 00:12:03;;;;;;;12.93;9.60;;;5.40;99.90;;;;;;5013735;28;20458;-74
2021/01/19 00:14:29;;;;;;;11.80;7.77;;;5.40;99.90;;;;;;5014345;28;20450;-74
2021/01/19 00:16:55;;;;;;;11.70;8.20;;;5.40;99.90;;;;;;5013897;28;20486;-75
2021/01/19 00:19:22;;;;;;;13.70;8.00;;;5.40;99.90;;;;;;5014846;28;20554;-75
2021/01/19 00:21:48;;;;;;;15.10;7.87;;;5.40;99.90;;;;;;5013839;28;20787;-75
2021/01/19 00:24:14;;;;;;;14.03;8.40;;;5.30;99.90;;;;;;5014070;28;21018;-74
2021/01/19 00:26:41;;;;;;;18.30;8.23;;;5.30;99.90;;;;;;5014703;28;20457;-75
2021/01/19 00:29:08;;;;;;;18.53;8.80;;;5.30;99.90;;;;;;5010926;28;20913;-74
2021/01/19 00:31:34;;;;;;;14.87;9.83;;;5.30;99.90;;;;;;5014117;28;20472;-75
2021/01/19 00:34:00;;;;;;;15.90;8.90;;;5.30;99.90;;;;;;5013550;28;20453;-75
2021/01/19 00:36:27;;;;;;;13.00;8.33;;;5.30;99.90;;;;;;5014502;28;20457;-75
2021/01/19 00:38:53;;;;;;;16.13;8.80;;;5.30;99.90;;;;;;5009141;28;20546;-75
2021/01/19 00:41:19;;;;;;;10.10;7.47;;;5.30;99.90;;;;;;5014386;28;20532;-75
2021/01/19 00:43:47;;;;;;;16.20;7.27;;;5.30;99.90;;;;;;5014116;28;20471;-77
2021/01/19 00:46:15;;;;;;;12.67;7.57;;;5.30;99.90;;;;;;5012460;28;20457;-75
2021/01/19 00:48:42;;;;;;;14.97;7.70;;;5.30;99.90;;;;;;5013883;28;20500;-74
2021/01/19 00:51:08;;;;;;;16.43;9.00;;;5.30;99.90;;;;;;5013579;28;20453;-74
2021/01/19 00:53:35;;;;;;;13.83;8.30;;;5.20;99.90;;;;;;5014235;28;20542;-74
2021/01/19 00:56:02;;;;;;;16.30;7.17;;;5.20;99.90;;;;;;5013829;28;20512;-75
2021/01/19 00:58:28;;;;;;;15.63;7.57;;;5.20;99.90;;;;;;5014145;28;20450;-74
2021/01/19 01:00:55;;;;;;;16.77;8.23;;;5.20;99.90;;;;;;5013781;28;20452;-74
2021/01/19 01:03:21;;;;;;;15.33;7.10;;;5.20;99.90;;;;;;5014333;28;20549;-74
2021/01/19 01:05:48;;;;;;;16.73;6.50;;;5.20;99.90;;;;;;5014249;28;20467;-81
2021/01/19 01:08:15;;;;;;;11.10;6.97;;;5.20;99.90;;;;;;5014206;28;20506;-75
2021/01/19 01:10:41;;;;;;;15.93;6.60;;;5.20;99.90;;;;;;5013847;28;20450;-75
2021/01/19 01:13:07;;;;;;;16.33;7.40;;;5.20;99.90;;;;;;5014278;28;20888;-75
2021/01/19 01:15:35;;;;;;;8.67;6.27;;;5.20;99.90;;;;;;5014057;28;20507;-74
2021/01/19 01:18:03;;;;;;;12.40;6.83;;;5.20;99.90;;;;;;5014032;28;20521;-74
2021/01/19 01:20:29;;;;;;;24.63;6.67;;;5.20;99.90;;;;;;5014842;28;20454;-75
2021/01/19 01:22:56;;;;;;;16.80;6.37;;;5.20;99.90;;;;;;5014120;28;20499;-76
2021/01/19 01:25:22;;;;;;;11.63;6.30;;;5.20;99.90;;;;;;5014592;28;20541;-76
2021/01/19 01:27:49;;;;;;;12.93;5.80;;;5.30;99.90;;;;;;5013889;28;20987;-78
2021/01/19 01:30:16;;;;;;;10.07;5.43;;;5.20;99.90;;;;;;5014142;28;20463;-75
2021/01/19 01:32:44;;;;;;;11.07;5.27;;;5.30;99.90;;;;;;5014316;28;20452;-75
2021/01/19 01:35:12;;;;;;;14.60;4.90;;;5.30;99.90;;;;;;5014204;28;20998;-75
2021/01/19 01:37:44;;;;;;;8.13;4.30;;;5.30;99.90;;;;;;5014297;28;20761;-75
2021/01/19 01:40:12;;;;;;;8.37;4.30;;;5.30;99.90;;;;;;5014208;28;20575;-75
2021/01/19 01:42:39;;;;;;;11.20;4.57;;;5.30;99.90;;;;;;5014523;28;20456;-75
2021/01/19 01:45:07;;;;;;;11.00;5.00;;;5.30;99.90;;;;;;5014084;28;20453;-76
2021/01/19 01:47:33;;;;;;;14.83;4.17;;;5.30;99.90;;;;;;5014264;28;20515;-75
2021/01/19 01:50:00;;;;;;;10.30;4.50;;;5.30;99.90;;;;;;5013968;28;20452;-75
2021/01/19 01:52:29;;;;;;;6.87;3.97;;;5.30;99.90;;;;;;5014133;28;20904;-76
2021/01/19 01:54:56;;;;;;;6.17;3.47;;;5.30;99.90;;;;;;5014289;28;20442;-77
2021/01/19 01:57:23;;;;;;;8.70;3.93;;;5.30;99.90;;;;;;5017271;28;20456;-76
2021/01/19 01:59:51;;;;;;;6.20;3.77;;;5.30;99.90;;;;;;5018460;28;20464;-76
2021/01/19 02:02:17;;;;;;;9.30;3.90;;;5.40;99.90;;;;;;5018108;28;20460;-76
2021/01/19 02:04:44;;;;;;;9.73;3.63;;;5.40;99.90;;;;;;5018169;28;20496;-76
2021/01/19 02:07:22;;;;;;;9.17;3.30;;;5.40;99.90;;;;;;5017933;28;20496;-76
2021/01/19 02:09:58;;;;;;;7.10;3.80;;;5.40;99.90;;;;;;5018209;28;20438;-76
2021/01/19 02:12:32;;;;;;;13.80;3.23;;;5.40;99.90;;;;;;5018708;28;20768;-75
2021/01/19 02:15:02;;;;;;;4.60;2.87;;;5.40;99.90;;;;;;5018505;28;20444;-75
2021/01/19 02:17:38;;;;;;;5.40;2.73;;;5.40;99.90;;;;;;5017830;28;20458;-75
2021/01/19 02:20:50;;;;;;;7.43;2.83;;;5.40;99.90;;;;;;5017766;28;20493;-75
2021/01/19 02:23:25;;;;;;;12.03;2.90;;;5.40;99.90;;;;;;4938014;29;20461;-75
2021/01/19 02:26:34;;;;;;;5.00;2.30;;;5.40;99.90;;;;;;5001636;28;20655;-77
2021/01/19 02:29:19;;;;;;;7.57;2.30;;;5.50;99.90;;;;;;5017499;28;20489;-75
2021/01/19 02:32:03;;;;;;;7.50;3.17;;;5.50;99.90;;;;;;5018238;28;20437;-75
2021/01/19 02:34:37;;;;;;;14.33;3.17;;;5.40;99.90;;;;;;5017817;28;20441;-75
2021/01/19 02:37:08;;;;;;;7.67;3.20;;;5.40;99.90;;;;;;5017743;28;20909;-75
2021/01/19 02:39:50;;;;;;;10.50;3.00;;;5.40;99.90;;;;;;5018025;28;20434;-75
2021/01/19 02:42:21;;;;;;;10.33;3.80;;;5.50;99.90;;;;;;5017593;28;20471;-75
2021/01/19 02:44:50;;;;;;;6.87;2.27;;;5.50;99.90;;;;;;5017386;28;20441;-75
2021/01/19 02:47:17;;;;;;;6.47;2.67;;;5.50;99.90;;;;;;5016620;28;20496;-75
2021/01/19 02:49:44;;;;;;;9.77;2.60;;;5.40;99.90;;;;;;4997940;28;20455;-75
2021/01/19 02:52:12;;;;;;;8.27;2.80;;;5.40;99.90;;;;;;4997053;28;20466;-76
2021/01/19 02:54:40;;;;;;;8.47;2.77;;;5.40;99.90;;;;;;4996645;28;20918;-75
2021/01/19 02:57:23;;;;;;;4.20;2.00;;;5.40;99.90;;;;;;4996793;28;20461;-76
2021/01/19 03:00:00;;;;;;;8.70;3.23;;;5.40;99.90;;;;;;5015087;28;20910;-76
2021/01/19 03:02:31;;;;;;;5.13;2.07;;;5.40;99.90;;;;;;5016806;28;20441;-76
2021/01/19 03:05:00;;;;;;;3.90;2.23;;;5.40;99.90;;;;;;5016436;28;20430;-77
2021/01/19 03:07:28;;;;;;;7.23;2.50;;;5.40;99.90;;;;;;5015899;28;20574;-76
2021/01/19 03:09:58;;;;;;;6.97;3.43;;;5.40;99.90;;;;;;5015353;28;20456;-87
2021/01/19 03:12:26;;;;;;;8.77;2.20;;;5.30;99.90;;;;;;5016075;28;20543;-76
2021/01/19 03:14:54;;;;;;;5.30;1.60;;;5.30;99.90;;;;;;5015645;28;20947;-75
2021/01/19 03:17:20;;;;;;;8.10;1.80;;;5.30;99.90;;;;;;5015612;28;20486;-75
2021/01/19 03:19:49;;;;;;;6.60;1.90;;;5.30;99.90;;;;;;5016285;28;20544;-74
2021/01/19 03:22:16;;;;;;;6.60;2.23;;;5.30;99.90;;;;;;5015404;28;20462;-75
2021/01/19 03:24:42;;;;;;;6.00;1.80;;;5.30;99.90;;;;;;5016297;28;20543;-74
2021/01/19 03:27:09;;;;;;;4.67;1.50;;;5.30;99.90;;;;;;5015883;28;20469;-75
2021/01/19 03:29:36;;;;;;;5.10;2.27;;;5.30;99.90;;;;;;5016390;28;20460;-74
2021/01/19 03:32:03;;;;;;;5.33;1.73;;;5.30;99.90;;;;;;5015733;28;20444;-75
2021/01/19 03:34:29;;;;;;;7.03;1.73;;;5.30;99.90;;;;;;5015920;28;20452;-74
2021/01/19 03:36:57;;;;;;;4.50;1.60;;;5.30;99.90;;;;;;5016212;28;20471;-78
2021/01/19 03:39:23;;;;;;;2.90;1.83;;;5.30;99.90;;;;;;5015908;28;20500;-75
2021/01/19 03:41:49;;;;;;;4.37;1.80;;;5.30;99.90;;;;;;5016075;28;20468;-75
2021/01/19 03:44:16;;;;;;;6.00;2.37;;;5.30;99.90;;;;;;5016030;28;20458;-75
2021/01/19 03:46:42;;;;;;;6.87;2.10;;;5.20;99.90;;;;;;5015508;28;20488;-75
2021/01/19 03:49:08;;;;;;;6.67;2.37;;;5.30;99.90;;;;;;5015966;28;20563;-73
2021/01/19 03:51:35;;;;;;;6.30;2.40;;;5.30;99.90;;;;;;5016146;28;20914;-75
2021/01/19 03:54:02;;;;;;;3.97;2.27;;;5.20;99.90;;;;;;5016253;28;20469;-76
2021/01/19 03:56:29;;;;;;;6.80;3.97;;;5.20;99.90;;;;;;5016502;28;20542;-75
2021/01/19 03:58:55;;;;;;;6.43;2.53;;;5.30;99.90;;;;;;5016093;28;20487;-76
2021/01/19 04:01:21;;;;;;;7.63;2.40;;;5.30;99.90;;;;;;5015400;28;20467;-75
2021/01/19 04:03:47;;;;;;;3.80;1.90;;;5.30;99.90;;;;;;5015521;28;20456;-74
2021/01/19 04:06:14;;;;;;;6.80;1.87;;;5.30;99.90;;;;;;5015608;28;20555;-74
2021/01/19 04:08:40;;;;;;;5.10;2.20;;;5.30;99.90;;;;;;5015403;28;20484;-75
2021/01/19 04:11:08;;;;;;;9.03;2.60;;;5.30;99.90;;;;;;5015050;28;20454;-74
2021/01/19 04:13:35;;;;;;;10.40;2.27;;;5.30;99.90;;;;;;5015261;28;20446;-74
2021/01/19 04:16:01;;;;;;;4.50;1.87;;;5.30;99.90;;;;;;5014934;28;20796;-79
2021/01/19 04:18:28;;;;;;;7.20;2.30;;;5.30;99.90;;;;;;5015159;28;20464;-74
2021/01/19 04:20:54;;;;;;;9.37;2.60;;;5.30;99.90;;;;;;5014091;28;20453;-74
2021/01/19 04:23:21;;;;;;;4.73;1.77;;;5.30;99.90;;;;;;5014429;28;20988;-74
2021/01/19 04:25:48;;;;;;;9.30;2.10;;;5.30;99.90;;;;;;5015337;28;20563;-74
2021/01/19 04:28:16;;;;;;;13.30;4.00;;;5.20;99.90;;;;;;5014619;28;20535;-75
2021/01/19 04:30:43;;;;;;;8.53;2.30;;;5.20;99.90;;;;;;5015095;28;20523;-75
2021/01/19 04:33:11;;;;;;;8.10;2.27;;;5.20;99.90;;;;;;5014987;28;20449;-75
2021/01/19 04:35:37;;;;;;;5.70;2.07;;;5.20;99.90;;;;;;5014781;28;20933;-75
2021/01/19 04:38:04;;;;;;;6.40;2.17;;;5.20;99.90;;;;;;5014614;28;20461;-76
2021/01/19 04:40:30;;;;;;;8.10;2.17;;;5.20;99.90;;;;;;5014606;28;20454;-75
2021/01/19 04:42:56;;;;;;;8.67;2.13;;;5.10;99.90;;;;;;5014913;28;20453;-75
2021/01/19 04:45:24;;;;;;;6.60;2.43;;;5.10;99.90;;;;;;5013781;28;20464;-75
2021/01/19 04:47:52;;;;;;;7.23;2.17;;;5.10;99.90;;;;;;5014727;28;20497;-75
2021/01/19 04:50:18;;;;;;;5.90;2.73;;;5.00;99.90;;;;;;5013698;28;20448;-75
2021/01/19 04:52:46;;;;;;;3.73;2.10;;;5.00;99.90;;;;;;5014556;28;20446;-76
2021/01/19 04:55:17;;;;;;;5.77;2.30;;;4.90;99.90;;;;;;5014156;28;20475;-76
2021/01/19 04:57:43;;;;;;;6.20;2.10;;;4.90;99.90;;;;;;5014872;28;20461;-75
2021/01/19 05:00:12;;;;;;;4.50;2.27;;;4.80;99.90;;;;;;5014483;28;20444;-76
2021/01/19 05:03:01;;;;;;;9.20;2.17;;;4.70;99.90;;;;;;5013818;28;20905;-75
2021/01/19 05:05:58;;;;;;;7.60;2.33;;;4.70;99.90;;;;;;5014327;28;20467;-76
2021/01/19 05:08:27;;;;;;;7.63;2.70;;;4.60;99.90;;;;;;5014041;28;20481;-79
2021/01/19 05:10:59;;;;;;;4.77;2.60;;;4.60;99.90;;;;;;5013989;28;20457;-76
2021/01/19 05:13:48;;;;;;;7.03;2.67;;;4.60;99.90;;;;;;5013890;28;20548;-76
2021/01/19 05:16:17;;;;;;;12.23;3.00;;;4.70;99.90;;;;;;5013768;28;20437;-74
2021/01/19 05:18:45;;;;;;;10.30;3.70;;;4.70;99.90;;;;;;5013845;28;20790;-74
2021/01/19 05:21:12;;;;;;;6.20;2.57;;;4.60;99.90;;;;;;5013607;28;20509;-74
2021/01/19 05:23:38;;;;;;;10.20;2.93;;;4.60;99.90;;;;;;5013992;28;20458;-74
2021/01/19 05:26:06;;;;;;;7.40;3.33;;;4.50;99.90;;;;;;5013590;28;20460;-76
2021/01/19 05:28:36;;;;;;;7.10;2.50;;;4.50;99.90;;;;;;5014312;28;20854;-74
2021/01/19 05:31:06;;;;;;;8.20;2.80;;;4.50;99.90;;;;;;5014035;28;20469;-79
2021/01/19 05:33:33;;;;;;;9.80;3.20;;;4.50;99.90;;;;;;5014302;28;20544;-75
2021/01/19 05:36:09;;;;;;;9.20;2.87;;;4.50;99.90;;;;;;5014289;28;20958;-74
2021/01/19 05:38:46;;;;;;;7.63;3.40;;;4.50;99.90;;;;;;5013716;28;20495;-75
2021/01/19 05:41:26;;;;;;;8.07;2.93;;;4.50;99.90;;;;;;5014034;28;20507;-74
2021/01/19 05:43:53;;;;;;;8.53;3.00;;;4.50;99.90;;;;;;5013939;28;20449;-76
2021/01/19 05:46:29;;;;;;;14.93;3.17;;;4.40;99.90;;;;;;5014243;28;20448;-76
2021/01/19 05:49:00;;;;;;;9.03;3.60;;;4.40;99.90;;;;;;5014551;28;20485;-76
2021/01/19 05:51:29;;;;;;;6.77;2.60;;;4.50;99.90;;;;;;5013949;28;20457;-77
2021/01/19 05:53:57;;;;;;;7.60;3.03;;;4.50;99.90;;;;;;5014316;28;20539;-78
2021/01/19 05:56:24;;;;;;;5.60;2.77;;;4.50;99.90;;;;;;5014039;28;21062;-78
2021/01/19 05:58:50;;;;;;;5.90;2.90;;;4.50;99.90;;;;;;5014065;28;20466;-79
2021/01/19 06:01:35;;;;;;;7.10;3.40;;;4.40;99.90;;;;;;5014295;28;20455;-78
2021/01/19 06:04:03;;;;;;;5.73;3.33;;;4.40;99.90;;;;;;5014575;28;20837;-78
2021/01/19 06:06:30;;;;;;;9.57;2.47;;;4.50;99.90;;;;;;5014534;28;20594;-78
2021/01/19 06:09:01;;;;;;;5.40;2.53;;;4.50;99.90;;;;;;5013983;28;20494;-78
2021/01/19 06:11:28;;;;;;;5.43;2.90;;;4.50;99.90;;;;;;5014247;28;20462;-77
2021/01/19 06:13:55;;;;;;;10.73;2.63;;;4.50;99.90;;;;;;5014230;28;20592;-78
2021/01/19 06:16:25;;;;;;;9.93;2.60;;;4.50;99.90;;;;;;5013782;28;20547;-78
2021/01/19 06:18:52;;;;;;;9.90;3.60;;;4.50;99.90;;;;;;5014377;28;20853;-78
2021/01/19 06:21:33;;;;;;;7.63;3.90;;;4.50;99.90;;;;;;5014127;28;20449;-80
2021/01/19 06:23:59;;;;;;;10.40;3.47;;;4.50;99.90;;;;;;5013860;28;20892;-78
2021/01/19 06:26:26;;;;;;;8.83;3.57;;;4.50;99.90;;;;;;5013924;28;20771;-79
2021/01/19 06:28:52;;;;;;;15.43;3.27;;;4.50;99.90;;;;;;5013928;28;20891;-79
2021/01/19 06:31:21;;;;;;;7.90;3.00;;;4.50;99.90;;;;;;5013832;28;20448;-79
2021/01/19 06:33:50;;;;;;;11.00;3.57;;;4.60;99.90;;;;;;5013986;28;20464;-79
2021/01/19 06:36:18;;;;;;;5.20;2.80;;;4.60;99.90;;;;;;5013723;28;20514;-78
2021/01/19 06:38:47;;;;;;;5.70;2.80;;;4.60;99.90;;;;;;5014084;28;20515;-78
2021/01/19 06:41:16;;;;;;;9.43;2.77;;;4.50;99.90;;;;;;5013836;28;20791;-78
2021/01/19 06:43:46;;;;;;;13.33;3.50;;;4.60;99.90;;;;;;5015547;28;20462;-78
2021/01/19 06:46:16;;;;;;;7.47;2.60;;;4.60;99.90;;;;;;5017457;28;20784;-79
2021/01/19 06:48:43;;;;;;;5.97;2.30;;;4.60;99.90;;;;;;5017021;28;20595;-78
2021/01/19 06:51:13;;;;;;;6.83;3.30;;;4.60;99.90;;;;;;5016615;28;20441;-79
2021/01/19 06:53:45;;;;;;;8.53;3.03;;;4.60;99.90;;;;;;5016515;28;20921;-79
2021/01/19 06:56:14;;;;;;;3.70;2.60;;;4.60;99.90;;;;;;5016619;28;20448;-79
2021/01/19 06:58:54;;;;;;;6.23;3.70;;;4.70;99.90;;;;;;5017256;28;20603;-78
2021/01/19 07:01:22;;;;;;;11.40;3.30;;;4.70;99.90;;;;;;5017005;28;20437;-78
2021/01/19 07:03:49;;;;;;;10.47;3.50;;;4.70;99.90;;;;;;5017128;28;20823;-79
2021/01/19 07:06:16;;;;;;;7.00;2.70;;;4.60;99.90;;;;;;5016815;28;20451;-78
2021/01/19 07:09:25;;;;;;;11.00;3.70;;;4.70;99.90;;;;;;5017545;28;20491;-79
2021/01/19 07:12:17;;;;;;;7.60;2.83;;;4.70;99.90;;;;;;5017147;28;20580;-80
2021/01/19 07:14:56;;;;;;;4.03;2.77;;;4.70;99.90;;;;;;5016825;28;20514;-77
2021/01/19 07:17:40;;;;;;;5.43;2.73;;;4.70;99.90;;;;;;5016688;28;20909;-77
2021/01/19 07:20:17;;;;;;;6.97;3.00;;;4.70;99.90;;;;;;5015969;28;20449;-85
2021/01/19 07:22:58;;;;;;;3.93;2.60;;;4.70;99.90;;;;;;5016763;28;20875;-78
2021/01/19 07:25:24;;;;;;;9.13;2.70;;;4.70;99.90;;;;;;5011678;28;20448;-78
2021/01/19 07:27:52;;;;;;;7.40;2.40;;;4.70;99.90;;;;;;5015962;28;20912;-77
2021/01/19 07:30:21;;;;;;;5.53;2.80;;;4.70;99.90;;;;;;5015585;28;20487;-78
2021/01/19 07:32:50;;;;;;;4.57;3.17;;;4.70;99.90;;;;;;5016176;28;20496;-77
2021/01/19 07:35:21;;;;;;;4.30;2.63;;;4.80;99.90;;;;;;5015965;28;20490;-77
2021/01/19 07:37:55;;;;;;;4.93;2.67;;;4.70;99.90;;;;;;5016272;28;20452;-78
2021/01/19 07:40:22;;;;;;;6.93;2.60;;;4.80;99.90;;;;;;5015471;28;20439;-77
2021/01/19 07:42:49;;;;;;;4.13;2.17;;;4.80;99.90;;;;;;5016179;28;20536;-77
2021/01/19 07:45:16;;;;;;;6.47;3.03;;;4.80;99.90;;;;;;5015088;28;20445;-78
2021/01/19 07:47:45;;;;;;;7.20;3.07;;;4.80;99.90;;;;;;5015804;28;20577;-77
2021/01/19 07:50:14;;;;;;;4.10;2.10;;;4.80;99.90;;;;;;5015940;28;20452;-78
2021/01/19 07:52:43;;;;;;;4.60;2.90;;;4.80;99.90;;;;;;5015849;28;20452;-78
2021/01/19 07:55:14;;;;;;;6.07;3.10;;;4.80;99.90;;;;;;5012830;28;20796;-85
2021/01/19 07:57:42;;;;;;;5.03;3.03;;;4.80;99.90;;;;;;5015796;28;20548;-83
2021/01/19 08:00:10;;;;;;;6.27;3.07;;;4.80;99.90;;;;;;5015627;28;20461;-86
2021/01/19 08:02:37;;;;;;;4.73;2.73;;;4.80;99.90;;;;;;5015205;28;20457;-80
2021/01/19 08:05:06;;;;;;;5.50;2.90;;;4.90;99.90;;;;;;5015761;28;20536;-80
2021/01/19 08:07:40;;;;;;;4.07;2.50;;;4.90;99.90;;;;;;5015481;28;20453;-78
2021/01/19 08:10:22;;;;;;;5.60;3.20;;;4.80;99.90;;;;;;5014789;28;20536;-78
2021/01/19 08:12:52;;;;;;;7.50;2.80;;;4.80;99.90;;;;;;4994496;28;20459;-78
2021/01/19 08:15:23;;;;;;;4.67;2.90;;;4.80;99.90;;;;;;4995156;28;20549;-78
2021/01/19 08:17:52;;;;;;;4.23;3.07;;;4.80;99.90;;;;;;4995591;28;20448;-79
2021/01/19 08:20:30;;;;;;;8.37;3.00;;;4.90;99.90;;;;;;4994804;28;20980;-78
2021/01/19 08:23:09;;;;;;;6.20;3.70;;;4.90;99.90;;;;;;4995734;28;20835;-78
2021/01/19 08:25:35;;;;;;;6.30;3.83;;;4.90;99.90;;;;;;5007166;28;20540;-83
2021/01/19 08:28:02;;;;;;;5.23;2.90;;;4.90;99.90;;;;;;5014839;28;20522;-79
2021/01/19 08:30:31;;;;;;;5.17;2.67;;;4.90;99.90;;;;;;5014175;28;20720;-78
2021/01/19 08:32:59;;;;;;;6.73;2.70;;;4.90;99.90;;;;;;5014951;28;20481;-78
2021/01/19 08:35:28;;;;;;;3.50;2.30;;;4.90;99.90;;;;;;5011136;28;20471;-78
2021/01/19 08:37:59;;;;;;;4.20;2.70;;;5.00;99.90;;;;;;5014822;28;20457;-78
2021/01/19 08:40:27;;;;;;;4.70;2.50;;;5.00;99.90;;;;;;5013618;28;20472;-78
2021/01/19 08:42:55;;;;;;;6.23;2.50;;;5.00;99.90;;;;;;5014366;28;20479;-78
2021/01/19 08:45:27;;;;;;;5.03;2.20;;;5.00;99.90;;;;;;5013706;28;20954;-78
2021/01/19 08:47:55;;;;;;;4.20;2.33;;;5.00;99.90;;;;;;5014390;28;20963;-79
2021/01/19 08:50:24;;;;;;;2.67;1.87;;;5.00;99.90;;;;;;5014186;28;20770;-78
2021/01/19 08:52:51;;;;;;;3.30;2.03;;;5.00;99.90;;;;;;5014462;28;20457;-79
2021/01/19 08:55:18;;;;;;;4.60;2.63;;;5.00;99.90;;;;;;5013849;28;20454;-78
2021/01/19 08:57:50;;;;;;;5.03;2.80;;;5.10;99.90;;;;;;5014214;28;20905;-78
2021/01/19 09:00:26;;;;;;;3.80;2.30;;;5.10;99.90;;;;;;5014454;28;20445;-78
2021/01/19 09:02:54;;;;;;;5.57;2.00;;;5.10;99.90;;;;;;5014541;28;20479;-79
2021/01/19 09:05:26;;;;;;;5.63;2.63;;;5.10;99.90;;;;;;5011558;28;20901;-78
2021/01/19 09:07:52;;;;;;;12.60;6.43;;;5.20;99.90;;;;;;5013785;28;20569;-79
2021/01/19 09:10:24;;;;;;;3.20;2.10;;;5.20;99.90;;;;;;5011316;28;20478;-78
2021/01/19 09:12:57;;;;;;;4.13;1.97;;;5.20;99.90;;;;;;5013684;28;20464;-78
2021/01/19 09:15:24;;;;;;;5.73;2.40;;;5.20;99.90;;;;;;5012963;28;20556;-78
2021/01/19 09:17:55;;;;;;;3.63;2.07;;;5.20;99.90;;;;;;5013399;28;20548;-77
2021/01/19 09:20:23;;;;;;;5.80;2.20;;;5.20;99.90;;;;;;5013303;28;20452;-78
2021/01/19 09:22:51;;;;;;;5.20;2.40;;;5.20;99.90;;;;;;5014076;28;20457;-78
2021/01/19 09:25:20;;;;;;;5.70;2.60;;;5.20;99.90;;;;;;5014019;28;20905;-78
2021/01/19 09:27:47;;;;;;;7.40;3.10;;;5.20;99.90;;;;;;5014069;28;20795;-78
2021/01/19 09:30:15;;;;;;;3.00;2.10;;;5.20;99.90;;;;;;5013468;28;20489;-78
2021/01/19 09:32:43;;;;;;;2.93;2.30;;;5.20;99.90;;;;;;5014327;28;20486;-77
2021/01/19 09:35:14;;;;;;;6.13;2.30;;;5.20;99.90;;;;;;5010530;28;20457;-77
2021/01/19 09:37:41;;;;;;;2.70;2.00;;;5.30;99.90;;;;;;5014014;28;20442;-77
2021/01/19 09:40:10;;;;;;;2.87;1.67;;;5.30;99.90;;;;;;5014318;28;20457;-77
2021/01/19 09:42:39;;;;;;;3.27;1.90;;;5.40;99.90;;;;;;5014049;28;20450;-77
2021/01/19 09:45:08;;;;;;;2.20;1.70;;;5.40;99.90;;;;;;5014065;28;20537;-77
2021/01/19 09:47:35;;;;;;;3.77;2.27;;;5.40;99.90;;;;;;5013583;28;20500;-77
2021/01/19 09:50:02;;;;;;;5.40;1.90;;;5.50;99.90;;;;;;5014147;28;20465;-77
2021/01/19 09:52:31;;;;;;;3.50;2.30;;;5.50;99.90;;;;;;5013851;28;20451;-77
2021/01/19 09:55:13;;;;;;;4.07;2.17;;;5.50;99.90;;;;;;5013819;28;20524;-77
2021/01/19 09:57:39;;;;;;;3.80;2.07;;;5.50;99.90;;;;;;5013824;28;20457;-79
2021/01/19 10:00:08;;;;;;;3.70;1.80;;;5.50;99.90;;;;;;5014351;28;20548;-78
2021/01/19 10:02:35;;;;;;;4.13;1.87;;;5.50;99.90;;;;;;5014030;28;20472;-78
2021/01/19 10:05:02;;;;;;;4.17;2.00;;;5.60;99.90;;;;;;5011995;28;20489;-77
2021/01/19 10:07:29;;;;;;;4.37;2.03;;;5.60;99.90;;;;;;4993632;28;20453;-79
2021/01/19 10:10:06;;;;;;;3.20;1.80;;;5.60;99.90;;;;;;5008684;28;20499;-82
2021/01/19 10:12:33;;;;;;;3.23;2.00;;;5.60;99.90;;;;;;5012868;28;20441;-77
2021/01/19 10:15:00;;;;;;;4.67;2.17;;;5.70;99.90;;;;;;5013010;28;20452;-78
2021/01/19 10:17:31;;;;;;;3.07;2.13;;;5.70;99.90;;;;;;5014947;28;20488;-78
2021/01/19 10:20:09;;;;;;;2.97;1.73;;;5.70;99.90;;;;;;5018071;28;20453;-77
2021/01/19 10:22:37;;;;;;;3.20;1.87;;;5.80;99.90;;;;;;5016678;28;20586;-78
2021/01/19 10:25:06;;;;;;;3.23;1.90;;;5.80;99.90;;;;;;5017746;28;20514;-78
2021/01/19 10:27:38;;;;;;;3.30;1.60;;;5.80;99.90;;;;;;5017828;28;21066;-78
2021/01/19 10:30:05;;;;;;;2.60;1.60;;;5.80;99.90;;;;;;5017236;28;20450;-78
2021/01/19 10:32:45;;;;;;;4.27;1.97;;;5.80;99.90;;;;;;5017100;28;20922;-78
2021/01/19 10:35:14;;;;;;;4.23;2.00;;;5.80;99.90;;;;;;5015704;28;20540;-77
2021/01/19 10:37:51;;;;;;;3.47;1.87;;;5.90;99.90;;;;;;5017051;28;20548;-77
2021/01/19 10:40:18;;;;;;;3.57;1.83;;;5.90;99.90;;;;;;5017495;28;20539;-79
2021/01/19 10:42:45;;;;;;;3.47;1.83;;;5.90;99.90;;;;;;5017436;28;20441;-77
2021/01/19 10:45:12;;;;;;;3.73;1.57;;;6.00;99.90;;;;;;5016992;28;20524;-77
2021/01/19 10:47:39;;;;;;;3.30;1.70;;;6.00;99.90;;;;;;5016273;28;20572;-77
2021/01/19 10:50:12;;;;;;;4.43;1.70;;;6.00;99.90;;;;;;5016614;28;20614;-77
2021/01/19 10:52:40;;;;;;;3.37;1.47;;;6.10;99.90;;;;;;5016486;28;20445;-77
2021/01/19 10:55:09;;;;;;;2.43;1.47;;;6.10;99.90;;;;;;5016677;28;20918;-77
2021/01/19 10:57:35;;;;;;;2.27;1.30;;;6.10;99.90;;;;;;5016262;28;20437;-77
2021/01/19 11:00:03;;;;;;;5.60;1.63;;;6.20;99.90;;;;;;5017174;28;20789;-77
2021/01/19 11:02:30;;;;;;;2.30;1.60;;;6.20;99.90;;;;;;5016481;28;20925;-78
2021/01/19 11:04:56;;;;;;;2.43;1.70;;;6.20;99.90;;;;;;5016967;28;20449;-77
2021/01/19 11:07:23;;;;;;;2.63;1.40;;;6.20;99.90;;;;;;5016161;28;20446;-77
2021/01/19 11:09:49;;;;;;;3.27;1.90;;;6.20;99.90;;;;;;5016830;28;20945;-76
2021/01/19 11:12:17;;;;;;;5.40;2.20;;;6.30;99.90;;;;;;5016138;28;20454;-85
2021/01/19 11:14:43;;;;;;;3.13;1.97;;;6.30;99.90;;;;;;5016057;28;20454;-76
2021/01/19 11:17:11;;;;;;;2.87;1.70;;;6.30;99.90;;;;;;5016463;28;20461;-76
2021/01/19 11:19:37;;;;;;;2.97;1.47;;;6.40;99.90;;;;;;5016032;28;20460;-76
2021/01/19 11:22:08;;;;;;;5.17;2.10;;;6.40;99.90;;;;;;5016361;28;20540;-77
2021/01/19 11:24:34;;;;;;;4.00;1.60;;;6.50;99.90;;;;;;5015627;28;20521;-76
2021/01/19 11:27:00;;;;;;;4.53;1.80;;;6.50;99.90;;;;;;5016412;28;20452;-76
2021/01/19 11:29:27;;;;;;;4.10;1.93;;;6.50;99.90;;;;;;5015272;28;20568;-77
2021/01/19 11:31:53;;;;;;;2.93;1.50;;;6.60;99.90;;;;;;5016611;28;20452;-77
2021/01/19 11:34:21;;;;;;;3.40;1.70;;;6.60;99.90;;;;;;5011334;28;20476;-77
2021/01/19 11:36:47;;;;;;;3.13;1.97;;;6.60;99.90;;;;;;5016062;28;20465;-77
2021/01/19 11:39:14;;;;;;;4.57;1.60;;;6.70;99.90;;;;;;5016168;28;20458;-76
2021/01/19 11:41:40;;;;;;;3.50;1.90;;;6.70;99.90;;;;;;5015870;28;20453;-77
2021/01/19 11:44:07;;;;;;;3.40;1.73;;;6.70;99.90;;;;;;5016466;28;20552;-76
2021/01/19 11:46:34;;;;;;;3.13;2.10;;;6.70;99.90;;;;;;5015755;28;20464;-77
2021/01/19 11:49:02;;;;;;;2.20;1.50;;;6.80;99.90;;;;;;5015940;28;20478;-77
2021/01/19 11:51:31;;;;;;;5.27;1.80;;;6.80;99.90;;;;;;5016022;28;20454;-78
2021/01/19 11:53:59;;;;;;;2.70;1.80;;;6.80;99.90;;;;;;5016140;28;20460;-77
2021/01/19 11:56:34;;;;;;;2.93;2.30;;;6.80;99.90;;;;;;5016032;28;20454;-77
2021/01/19 11:59:01;;;;;;;3.30;2.23;;;6.80;99.90;;;;;;5015959;28;20541;-77
2021/01/19 12:01:27;;;;;;;3.90;1.80;;;6.90;99.90;;;;;;5024942;28;20449;-78
2021/01/19 12:03:55;;;;;;;3.87;1.97;;;6.90;99.90;;;;;;5021106;28;20532;-77
2021/01/19 12:06:24;;;;;;;3.50;1.93;;;6.90;99.90;;;;;;5015702;28;20511;-79
2021/01/19 12:08:52;;;;;;;3.50;2.20;;;7.00;99.90;;;;;;5016035;28;20543;-77
2021/01/19 12:11:19;;;;;;;3.83;2.67;;;7.00;99.90;;;;;;5014664;28;20517;-86
2021/01/19 12:13:46;;;;;;;8.50;2.23;;;7.10;99.90;;;;;;5015704;28;20526;-77
2021/01/19 12:16:19;;;;;;;5.73;2.30;;;7.10;99.90;;;;;;5015843;28;20553;-77
2021/01/19 12:18:48;;;;;;;5.17;2.90;;;7.10;99.90;;;;;;5015937;28;20445;-77
2021/01/19 12:21:15;;;;;;;4.73;2.60;;;7.10;99.90;;;;;;5015732;28;20497;-77
2021/01/19 12:23:41;;;;;;;5.40;3.27;;;7.10;99.90;;;;;;5015862;28;20449;-77
2021/01/19 12:26:09;;;;;;;4.10;2.67;;;7.10;99.90;;;;;;5016040;28;20461;-77
2021/01/19 12:28:36;;;;;;;4.63;3.57;;;7.20;99.90;;;;;;5015774;28;20485;-77
2021/01/19 12:31:04;;;;;;;3.93;2.77;;;7.20;99.90;;;;;;5015774;28;20468;-77
2021/01/19 12:33:31;;;;;;;4.10;2.90;;;7.20;99.90;;;;;;5014789;28;20442;-77
2021/01/19 12:35:57;;;;;;;3.90;3.20;;;7.20;99.90;;;;;;5015407;28;20461;-77
2021/01/19 12:38:24;;;;;;;4.50;3.10;;;7.20;99.90;;;;;;5014801;28;20460;-78
2021/01/19 12:40:50;;;;;;;6.47;3.20;;;7.30;99.90;;;;;;5014941;28;20457;-80
2021/01/19 12:43:18;;;;;;;3.37;3.07;;;7.30;99.90;;;;;;5015185;28;20856;-76
2021/01/19 12:45:45;;;;;;;4.23;2.43;;;7.30;99.90;;;;;;5014298;28;20488;-78
2021/01/19 12:48:11;;;;;;;5.03;3.37;;;7.30;99.90;;;;;;5014613;28;20481;-77
2021/01/19 12:50:38;;;;;;;3.10;2.60;;;7.40;99.90;;;;;;5014565;28;20552;-77
2021/01/19 12:53:06;;;;;;;3.83;2.70;;;7.40;99.90;;;;;;5014621;28;20446;-78
2021/01/19 12:55:33;;;;;;;3.63;3.20;;;7.40;99.90;;;;;;5014469;28;20449;-81
2021/01/19 12:58:00;;;;;;;4.60;3.30;;;7.50;99.90;;;;;;5014432;28;20442;-77
2021/01/19 13:00:27;;;;;;;3.40;2.77;;;7.50;99.90;;;;;;5014000;28;20481;-77
2021/01/19 13:02:54;;;;;;;3.90;2.67;;;7.50;99.90;;;;;;5014644;28;20492;-77
2021/01/19 13:05:21;;;;;;;3.13;2.67;;;7.60;99.90;;;;;;5014243;28;20974;-88
2021/01/19 13:07:47;;;;;;;4.27;2.93;;;7.60;99.90;;;;;;5014169;28;20970;-77